Terminal Aerodrome Forecast
Issued by NWS

Home | Current Version | Previous Version | Text Only | Print | Product List | Glossary On
Versions: 1 2 3 4 5 6 7 8 9 10 11 12 13 14
000
FTUS44 KEPZ 021720
TAFLRU
TAF
KLRU 021720Z 0218/0318 VRB05KT P6SM FEW120 BKN250
     FM030300 11007KT P6SM VCTS SCT080CB BKN120 BKN250
     FM030700 07006KT P6SM SCT080 BKN150
     FM031400 12009KT P6SM SCT060 BKN120
      AMD NOT SKED=

USA.gov is the U.S. government's official web portal to all federal, state and local government web resources and services.